ADDS METAR Data INFO
IDs: Format: Raw Decoded Include TAF

Data at: 0023 UTC 11 Dec 2017

KRNO 102355Z 00000KT 10SM FEW250 08/M07 A3045 RMK AO2 SLP324 HZ S THRU W T00831072 10089 21022 56013
KRNO 102255Z 00000KT 10SM FEW190 FEW250 08/M07 A3046 RMK AO2 SLP325 HZ VC S-W T00781072
KRNO 102155Z 00000KT 10SM FEW190 FEW250 07/M08 A3047 RMK AO2 SLP329 HZ VC S-SW T00721078
KRNO 102055Z 00000KT 10SM FEW180 FEW200 FEW250 06/M07 A3050 RMK AO2 SLP339 T00611072 58025
KRNO 101955Z 00000KT 10SM FEW180 FEW200 FEW250 04/M07 A3053 RMK AO2 SLP354 HZ VC SE-SW T00391067
KRNO 101855Z 00000KT 10SM FEW180 FEW240 02/M07 A3055 RMK AO2 SLP365 HZ VC SE-SW T00171067
KRNO 101755Z 00000KT 10SM FEW180 FEW240 M02/M07 A3058 RMK AO2 SLP377 HZ SE-SW T10221072 11022 21078 50004
KRNO 101655Z 00000KT 10SM FEW180 FEW240 M04/M08 A3058 RMK AO2 SLP380 HZ E-S T10441078
KRNO 101555Z 00000KT 10SM FEW180 FEW240 M07/M09 A3058 RMK AO2 SLP381 HZ E-S T10671089
KRNO 101455Z 00000KT 10SM FEW180 FEW240 M08/M11 A3056 RMK AO2 SLP374 T10781106 55000
KRNO 101355Z 00000KT 10SM CLR M07/M10 A3056 RMK AO2 SLP373 T10721100
KRNO 101255Z 00000KT 10SM CLR M07/M10 A3056 RMK AO2 SLP368 T10721100
KRNO 101155Z 00000KT 10SM CLR M06/M09 A3057 RMK AO2 SLP363 T10611089 11011 21067 50000
KRNO 101055Z 00000KT 10SM CLR M06/M09 A3057 RMK AO2 SLP364 T10611089
KRNO 100955Z 00000KT 10SM CLR M05/M08 A3057 RMK AO2 SLP363 T10501083
KRNO 100855Z 00000KT 10SM CLR M04/M08 A3057 RMK AO2 SLP361 T10391078 58000
KRNO 100755Z 18003KT 10SM FEW200 M04/M08 A3057 RMK AO2 SLP369 T10391078 400831072
KRNO 100655Z 00000KT 10SM FEW200 M03/M07 A3058 RMK AO2 SLP373 T10281072
KRNO 100555Z 28004KT 10SM SCT200 M01/M07 A3057 RMK AO2 SLP369 T10111067 10078 21022 53009
KRNO 100455Z 00000KT 10SM BKN200 00/M07 A3055 RMK AO2 SLP367 T00001067
KRNO 100355Z 30003KT 10SM BKN200 01/M06 A3054 RMK AO2 SLP366 T00111061
KRNO 100255Z VRB04KT 10SM BKN200 03/M07 A3054 RMK AO2 SLP363 T00281067 53014
KRNO 100155Z 20004KT 10SM BKN200 03/M06 A3052 RMK AO2 SLP356 T00281061
KRNO 100055Z 19003KT 10SM BKN200 06/M06 A3050 RMK AO2 SLP343 T00561061
KRNO 092355Z 00000KT 10SM BKN200 08/M07 A3049 RMK AO2 SLP336 T00781067 10083 21011 56008
KRNO 092255Z 00000KT 10SM SCT180 SCT200 BKN250 08/M07 A3049 RMK AO2 SLP337 T00781067
KRNO 092155Z 00000KT 10SM R16R/5000VP6000FT SCT180 SCT200 BKN250 07/M07 A3049 RMK AO2 SLP338 T00721072
KRNO 092055Z VRB03KT 10SM SCT180 SCT200 BKN250 07/M07 A3052 RMK AO2 SLP344 HZ SE-SW T00721072 58022
KRNO 091955Z 00000KT 10SM SCT180 SCT200 BKN250 04/M07 A3055 RMK AO2 SLP357 HZ SE-SW T00391072
KRNO 091855Z 00000KT 10SM FEW180 SCT200 SCT250 02/M07 A3057 RMK AO2 SLP371 HZ SE-S T00171072
KRNO 091755Z 00000KT 10SM FEW180 SCT200 SCT250 M01/M07 A3059 RMK AO2 SLP380 HZ E-S T10061067 11006 21072 50004
KRNO 091655Z 00000KT 10SM FEW180 SCT200 SCT250 M03/M07 A3060 RMK AO2 SLP382 HZ E-SE T10331072
KRNO 091555Z 00000KT 10SM FEW200 SCT250 M07/M09 A3059 RMK AO2 SLP383 HZ E-SE T10671089
KRNO 091455Z 00000KT 10SM FEW200 SCT250 M07/M09 A3058 RMK AO2 SLP377 T10671094 53000
KRNO 091355Z 00000KT 10SM CLR M06/M09 A3057 RMK AO2 SLP375 T10611089
KRNO 091255Z 00000KT 10SM CLR M06/M09 A3057 RMK AO2 SLP368 T10611089